createdAt,value
2018-06-11T00:00:55.273Z,981.49
2018-06-11T00:01:55.479Z,981.46
2018-06-11T00:02:55.739Z,981.48
2018-06-11T00:03:55.805Z,981.46
2018-06-11T00:04:56.019Z,981.46
2018-06-11T00:05:56.218Z,981.44
2018-06-11T00:06:56.435Z,981.48
2018-06-11T00:07:56.614Z,981.44
2018-06-11T00:08:56.829Z,981.44
2018-06-11T00:09:57.010Z,981.43
2018-06-11T00:10:57.215Z,981.46
2018-06-11T00:11:57.402Z,981.43
2018-06-11T00:12:57.591Z,981.42
2018-06-11T00:13:57.803Z,981.40
2018-06-11T00:14:58.005Z,981.32
2018-06-11T00:15:58.203Z,981.35
2018-06-11T00:16:58.397Z,981.29
2018-06-11T00:17:58.608Z,981.31
2018-06-11T00:18:58.794Z,981.28
2018-06-11T00:19:58.985Z,981.31
2018-06-11T00:20:59.186Z,981.32
2018-06-11T00:21:59.372Z,981.33
2018-06-11T00:22:59.644Z,981.37
2018-06-11T00:23:59.829Z,981.36
2018-06-11T00:25:00.026Z,981.38
2018-06-11T00:26:00.228Z,981.41
2018-06-11T00:27:00.414Z,981.39
2018-06-11T00:28:00.617Z,981.38
2018-06-11T00:29:00.831Z,981.39
2018-06-11T00:30:01.045Z,981.35
2018-06-11T00:31:01.250Z,981.35
2018-06-11T00:33:33.075Z,981.30
2018-06-11T00:34:33.248Z,981.29
2018-06-11T00:35:33.443Z,981.28
2018-06-11T00:36:33.652Z,981.26
2018-06-11T00:37:33.854Z,981.23
2018-06-11T00:38:34.072Z,981.19
2018-06-11T00:39:34.277Z,981.21
2018-06-11T00:40:34.546Z,981.20
2018-06-11T00:41:34.610Z,981.19
2018-06-11T00:42:34.819Z,981.16
2018-06-11T00:43:35.007Z,981.14
2018-06-11T00:44:35.216Z,981.15
2018-06-11T00:45:35.411Z,981.11
2018-06-11T00:46:35.624Z,981.17
2018-06-11T00:47:35.984Z,981.19
2018-06-11T00:48:36.064Z,981.20
2018-06-11T00:49:36.274Z,981.24
2018-06-11T00:52:08.422Z,981.24
2018-06-11T00:53:08.597Z,981.24
2018-06-11T00:54:08.783Z,981.24
2018-06-11T00:55:08.983Z,981.25
2018-06-11T00:56:09.168Z,981.26
2018-06-11T00:57:09.361Z,981.20
2018-06-11T00:58:09.596Z,981.20
2018-06-11T00:59:09.755Z,981.16
2018-06-11T01:00:09.968Z,981.17
2018-06-11T01:01:10.169Z,981.17
2018-06-11T01:02:10.386Z,981.20
2018-06-11T01:03:10.587Z,981.18
2018-06-11T01:04:10.794Z,981.22
2018-06-11T01:05:11.006Z,981.22
2018-06-11T01:06:11.215Z,981.20
2018-06-11T01:07:11.425Z,981.20
2018-06-11T01:08:11.628Z,981.19
2018-06-11T01:09:11.824Z,981.18
2018-06-11T01:10:12.024Z,981.14
2018-06-11T01:11:12.228Z,981.14
2018-06-11T01:12:12.445Z,981.14
2018-06-11T01:13:12.665Z,981.17
2018-06-11T01:14:12.863Z,981.16
2018-06-11T01:16:45.006Z,981.21
2018-06-11T01:17:45.187Z,981.24
2018-06-11T01:18:45.367Z,981.26
2018-06-11T01:19:45.577Z,981.22
2018-06-11T01:20:45.771Z,981.21
2018-06-11T01:21:46.135Z,981.20
2018-06-11T01:22:46.201Z,981.19
2018-06-11T01:23:46.402Z,981.16
2018-06-11T01:24:46.594Z,981.15
2018-06-11T01:25:46.786Z,981.12
2018-06-11T01:26:46.989Z,981.10
2018-06-11T01:27:47.199Z,981.09
2018-06-11T01:28:47.394Z,981.07
2018-06-11T01:29:47.585Z,981.06
2018-06-11T01:30:47.765Z,981.04
2018-06-11T01:31:47.967Z,981.04
2018-06-11T01:32:48.306Z,981.08
2018-06-11T01:33:48.385Z,981.06
2018-06-11T01:34:48.595Z,981.10
2018-06-11T01:35:48.792Z,981.12
2018-06-11T01:36:49.002Z,981.15
2018-06-11T01:37:49.213Z,981.17
2018-06-11T01:38:49.408Z,981.15
2018-06-11T01:39:49.599Z,981.15
2018-06-11T01:40:49.795Z,981.17
2018-06-11T01:41:49.999Z,981.17
2018-06-11T01:42:50.200Z,981.15
2018-06-11T01:43:50.389Z,981.11
2018-06-11T01:44:50.599Z,981.13
2018-06-11T01:45:50.795Z,981.12
2018-06-11T01:46:50.981Z,981.15
2018-06-11T01:47:51.190Z,981.16
2018-06-11T01:48:51.404Z,981.18
2018-06-11T01:49:51.614Z,981.16
2018-06-11T01:50:51.834Z,981.20
2018-06-11T01:51:52.049Z,981.20
2018-06-11T01:52:52.259Z,981.19
2018-06-11T01:53:52.458Z,981.19
2018-06-11T01:54:52.656Z,981.18
2018-06-11T01:55:52.869Z,981.19
2018-06-11T01:56:53.058Z,981.19
2018-06-11T01:57:53.268Z,981.22
2018-06-11T01:58:53.475Z,981.20
2018-06-11T01:59:53.663Z,981.22
2018-06-11T02:00:53.876Z,981.22
2018-06-11T02:01:54.203Z,981.23
2018-06-11T02:02:54.301Z,981.19
2018-06-11T02:03:54.496Z,981.19
2018-06-11T02:04:54.694Z,981.20
2018-06-11T02:05:54.904Z,981.18
2018-06-11T02:06:55.103Z,981.17
2018-06-11T02:07:55.294Z,981.20
2018-06-11T02:08:55.479Z,981.23
2018-06-11T02:09:55.685Z,981.26
2018-06-11T02:12:27.806Z,981.22
2018-06-11T02:13:27.984Z,981.26
2018-06-11T02:14:28.170Z,981.26
2018-06-11T02:17:00.560Z,981.27
2018-06-11T02:18:00.490Z,981.30
2018-06-11T02:19:00.692Z,981.25
2018-06-11T02:20:00.907Z,981.30
2018-06-11T02:21:01.120Z,981.25
2018-06-11T02:22:01.402Z,981.25
2018-06-11T02:23:01.516Z,981.21
2018-06-11T02:24:01.712Z,981.22
2018-06-11T02:25:01.919Z,981.20
2018-06-11T02:26:02.129Z,981.23
2018-06-11T02:27:02.342Z,981.26
2018-06-11T02:28:02.532Z,981.25
2018-06-11T02:29:02.743Z,981.22
2018-06-11T02:30:02.957Z,981.20
2018-06-11T02:31:03.175Z,981.13
2018-06-11T02:32:03.383Z,981.14
2018-06-11T02:33:03.593Z,981.12
2018-06-11T02:34:03.805Z,981.06
2018-06-11T02:35:04.001Z,980.98
2018-06-11T02:36:04.201Z,980.97
2018-06-11T02:37:04.417Z,980.99
2018-06-11T02:38:04.611Z,980.96
2018-06-11T02:39:04.809Z,980.96
2018-06-11T02:40:05.016Z,980.99
2018-06-11T02:41:05.234Z,981.00
2018-06-11T02:42:05.976Z,981.03
2018-06-11T02:43:05.596Z,981.03
2018-06-11T02:44:05.795Z,981.02
2018-06-11T02:45:06.005Z,981.07
2018-06-11T02:46:06.204Z,981.07
2018-06-11T02:48:38.584Z,981.06
2018-06-11T02:49:38.749Z,981.04
2018-06-11T02:50:38.938Z,981.03
2018-06-11T02:51:39.133Z,981.05
2018-06-11T02:52:39.318Z,981.04
2018-06-11T02:53:39.511Z,981.02
2018-06-11T02:54:39.716Z,980.98
2018-06-11T02:55:39.917Z,981.01
2018-06-11T02:56:40.116Z,980.97
2018-06-11T02:57:40.328Z,980.99
2018-06-11T02:58:41.529Z,980.98
2018-06-11T02:59:40.726Z,980.98
2018-06-11T03:00:40.921Z,980.99
2018-06-11T03:01:41.116Z,980.95
2018-06-11T03:02:41.316Z,980.94
2018-06-11T03:03:41.527Z,980.94
2018-06-11T03:04:41.825Z,980.90
2018-06-11T03:05:41.897Z,980.93
2018-06-11T03:06:42.089Z,980.89
2018-06-11T03:07:42.306Z,980.90
2018-06-11T03:08:42.522Z,980.88
2018-06-11T03:09:42.722Z,980.88
2018-06-11T03:10:42.932Z,980.83
2018-06-11T03:11:43.134Z,980.88
2018-06-11T03:12:43.327Z,980.89
2018-06-11T03:13:44.508Z,980.92
2018-06-11T03:14:43.733Z,980.90
2018-06-11T03:15:43.956Z,980.93
2018-06-11T03:16:44.161Z,980.97
2018-06-11T03:17:44.350Z,980.96
2018-06-11T03:18:44.544Z,980.91
2018-06-11T03:19:44.759Z,980.91
2018-06-11T03:20:44.947Z,980.91
2018-06-11T03:21:45.152Z,980.92
2018-06-11T03:22:45.362Z,980.88
2018-06-11T03:23:45.581Z,980.83
2018-06-11T03:24:45.779Z,980.89
2018-06-11T03:25:45.970Z,980.86
2018-06-11T03:26:46.173Z,980.92
2018-06-11T03:27:46.383Z,980.88
2018-06-11T03:28:46.578Z,980.91
2018-06-11T03:29:46.786Z,980.89
2018-06-11T03:30:46.995Z,980.93
2018-06-11T03:31:47.207Z,980.92
2018-06-11T03:32:47.410Z,980.91
2018-06-11T03:33:47.602Z,980.88
2018-06-11T03:34:47.803Z,980.89
2018-06-11T03:35:48.042Z,980.87
2018-06-11T03:36:48.214Z,980.92
2018-06-11T03:37:48.417Z,980.92
2018-06-11T03:38:48.620Z,980.97
2018-06-11T03:39:48.818Z,980.98
2018-06-11T03:40:49.021Z,980.97
2018-06-11T03:41:49.234Z,981.00
2018-06-11T03:42:49.447Z,980.97
2018-06-11T03:43:49.654Z,980.98
2018-06-11T03:44:49.850Z,981.00
2018-06-11T03:45:50.047Z,981.01
2018-06-11T03:46:50.241Z,980.98
2018-06-11T03:47:50.447Z,981.04
2018-06-11T03:48:50.648Z,981.05
2018-06-11T03:49:50.842Z,981.06
2018-06-11T03:50:51.038Z,981.07
2018-06-11T03:51:51.240Z,981.07
2018-06-11T03:52:51.433Z,981.06
2018-06-11T03:53:51.631Z,981.07
2018-06-11T03:54:51.812Z,981.04
2018-06-11T03:55:52.147Z,981.03
2018-06-11T03:56:52.218Z,981.08
2018-06-11T03:57:52.442Z,981.08
2018-06-11T03:58:52.636Z,981.11
2018-06-11T03:59:52.827Z,981.12
2018-06-11T04:00:53.015Z,981.14
2018-06-11T04:01:53.228Z,981.14
2018-06-11T04:02:53.416Z,981.17
2018-06-11T04:03:53.605Z,981.13
2018-06-11T04:04:53.804Z,981.16
2018-06-11T04:05:54.015Z,981.13
2018-06-11T04:06:54.222Z,981.16
2018-06-11T04:07:54.436Z,981.11
2018-06-11T04:08:54.641Z,981.09
2018-06-11T04:09:54.838Z,981.07
2018-06-11T04:10:55.084Z,981.05
2018-06-11T04:11:55.266Z,981.09
2018-06-11T04:12:55.472Z,981.08
2018-06-11T04:13:55.664Z,981.08
2018-06-11T04:14:55.864Z,981.13
2018-06-11T04:15:56.061Z,981.11
2018-06-11T04:16:56.266Z,981.13
2018-06-11T04:17:56.474Z,981.13
2018-06-11T04:20:28.776Z,981.11
2018-06-11T04:21:28.954Z,981.12
2018-06-11T04:22:29.163Z,981.13
2018-06-11T04:23:29.366Z,981.14
2018-06-11T04:24:29.583Z,981.14
2018-06-11T04:25:29.773Z,981.19
2018-06-11T04:26:29.981Z,981.17
2018-06-11T04:27:30.188Z,981.18
2018-06-11T04:28:30.372Z,981.16
2018-06-11T04:29:30.573Z,981.15
2018-06-11T04:30:30.829Z,981.16
2018-06-11T04:31:30.997Z,981.18
2018-06-11T04:32:31.190Z,981.17
2018-06-11T04:33:32.288Z,981.20
2018-06-11T04:34:31.576Z,981.19
2018-06-11T04:35:31.774Z,981.20
2018-06-11T04:36:31.985Z,981.19
2018-06-11T04:37:32.173Z,981.21
2018-06-11T04:38:32.387Z,981.20
2018-06-11T04:39:32.592Z,981.17
2018-06-11T04:40:32.801Z,981.22
2018-06-11T04:41:33.003Z,981.20
2018-06-11T04:44:04.863Z,981.25
2018-06-11T04:45:05.039Z,981.27
2018-06-11T04:46:05.249Z,981.24
2018-06-11T04:47:05.457Z,981.29
2018-06-11T04:48:06.302Z,981.28
2018-06-11T04:49:06.808Z,981.32
2018-06-11T04:50:06.082Z,981.31
2018-06-11T04:51:06.338Z,981.34
2018-06-11T04:52:06.411Z,981.38
2018-06-11T04:53:06.627Z,981.35
2018-06-11T04:54:06.827Z,981.33
2018-06-11T04:55:07.058Z,981.36
2018-06-11T04:56:07.250Z,981.37
2018-06-11T04:57:07.469Z,981.35
2018-06-11T04:58:07.697Z,981.31
2018-06-11T04:59:07.908Z,981.34
2018-06-11T05:00:08.107Z,981.34
2018-06-11T05:01:08.307Z,981.37
2018-06-11T05:02:08.493Z,981.40
2018-06-11T05:03:08.686Z,981.41
2018-06-11T05:04:08.887Z,981.43
2018-06-11T05:05:09.080Z,981.43
2018-06-11T05:06:09.280Z,981.38
2018-06-11T05:07:09.478Z,981.42
2018-06-11T05:08:09.743Z,981.36
2018-06-11T05:09:09.907Z,981.36
2018-06-11T05:10:10.183Z,981.35
2018-06-11T05:11:10.297Z,981.36
2018-06-11T05:12:10.487Z,981.35
2018-06-11T05:13:10.710Z,981.32
2018-06-11T05:14:10.907Z,981.34
2018-06-11T05:15:11.127Z,981.36
2018-06-11T05:16:11.303Z,981.39
2018-06-11T05:17:11.520Z,981.39
2018-06-11T05:18:11.717Z,981.38
2018-06-11T05:19:11.917Z,981.40
2018-06-11T05:20:12.157Z,981.43
2018-06-11T05:21:12.349Z,981.40
2018-06-11T05:22:12.560Z,981.39
2018-06-11T05:23:12.792Z,981.40
2018-06-11T05:24:12.974Z,981.41
2018-06-11T05:25:13.197Z,981.42
2018-06-11T05:26:13.400Z,981.39
2018-06-11T05:27:13.589Z,981.43
2018-06-11T05:28:13.813Z,981.39
2018-06-11T05:29:14.009Z,981.44
2018-06-11T05:30:14.198Z,981.42
2018-06-11T05:31:14.412Z,981.43
2018-06-11T05:32:14.604Z,981.41
2018-06-11T05:33:14.809Z,981.42
2018-06-11T05:34:15.022Z,981.40
2018-06-11T05:35:15.205Z,981.38
2018-06-11T05:36:15.397Z,981.32
2018-06-11T05:37:15.597Z,981.28
2018-06-11T05:38:15.811Z,981.29
2018-06-11T05:39:16.011Z,981.31
2018-06-11T05:40:16.251Z,981.28
2018-06-11T05:41:16.430Z,981.29
2018-06-11T05:42:16.621Z,981.27
2018-06-11T05:43:16.860Z,981.26
2018-06-11T05:44:17.092Z,981.28
2018-06-11T05:45:17.292Z,981.28
2018-06-11T05:46:17.498Z,981.31
2018-06-11T05:47:17.687Z,981.32
2018-06-11T05:48:17.890Z,981.29
2018-06-11T05:49:18.094Z,981.30
2018-06-11T05:50:18.297Z,981.34
2018-06-11T05:51:18.518Z,981.36
2018-06-11T05:52:18.720Z,981.36
2018-06-11T05:53:18.938Z,981.36
2018-06-11T05:54:19.142Z,981.31
2018-06-11T05:55:19.328Z,981.31
2018-06-11T05:57:51.456Z,981.33
2018-06-11T05:58:51.638Z,981.31
2018-06-11T05:59:51.857Z,981.31
2018-06-11T06:00:52.066Z,981.29
2018-06-11T06:01:52.260Z,981.33
2018-06-11T06:02:52.448Z,981.30
2018-06-11T06:03:52.667Z,981.30
2018-06-11T06:04:52.868Z,981.31
2018-06-11T06:05:53.077Z,981.31
2018-06-11T06:06:53.268Z,981.31
2018-06-11T06:07:53.487Z,981.30
2018-06-11T06:08:53.683Z,981.28
2018-06-11T06:09:53.893Z,981.27
2018-06-11T06:10:54.113Z,981.27
2018-06-11T06:11:54.302Z,981.24
2018-06-11T06:12:54.486Z,981.27
2018-06-11T06:13:54.670Z,981.33
2018-06-11T06:14:54.856Z,981.43
2018-06-11T06:15:55.058Z,981.33
2018-06-11T06:16:55.272Z,981.40
2018-06-11T06:17:55.464Z,981.43
2018-06-11T06:18:56.642Z,981.48
2018-06-11T06:19:55.828Z,981.47
2018-06-11T06:20:56.032Z,981.51
2018-06-11T06:21:56.246Z,981.45
2018-06-11T06:22:56.457Z,981.46
2018-06-11T06:23:56.657Z,981.47
2018-06-11T06:24:56.865Z,981.48
2018-06-11T06:25:57.083Z,981.45
2018-06-11T06:26:57.276Z,981.44
2018-06-11T06:27:57.491Z,981.41
2018-06-11T06:28:57.703Z,981.39
2018-06-11T06:29:57.912Z,981.44
2018-06-11T06:30:58.116Z,981.44
2018-06-11T06:31:58.303Z,981.45
2018-06-11T06:32:58.510Z,981.50
2018-06-11T06:33:58.699Z,981.51
2018-06-11T06:34:58.923Z,981.53
2018-06-11T06:35:59.125Z,981.49
2018-06-11T06:36:59.325Z,981.46
2018-06-11T06:37:59.526Z,981.49
2018-06-11T06:38:59.708Z,981.49
2018-06-11T06:39:59.898Z,981.50
2018-06-11T06:41:00.111Z,981.53
2018-06-11T06:42:00.327Z,981.53
2018-06-11T06:43:00.529Z,981.54
2018-06-11T06:44:00.736Z,981.54
2018-06-11T06:45:00.924Z,981.53
2018-06-11T06:46:01.140Z,981.54
2018-06-11T06:47:01.347Z,981.53
2018-06-11T06:48:01.558Z,981.50
2018-06-11T06:49:01.768Z,981.55
2018-06-11T06:50:01.987Z,981.53
2018-06-11T06:51:02.216Z,981.51
2018-06-11T06:52:02.410Z,981.54
2018-06-11T06:53:02.620Z,981.57
2018-06-11T06:54:02.821Z,981.58
2018-06-11T06:55:03.016Z,981.56
2018-06-11T06:56:03.228Z,981.67
2018-06-11T06:57:03.428Z,981.59
2018-06-11T06:58:03.615Z,981.59
2018-06-11T06:59:03.819Z,981.58
2018-06-11T07:00:04.035Z,981.56
2018-06-11T07:01:04.243Z,981.54
2018-06-11T07:02:04.455Z,981.57
2018-06-11T07:03:04.648Z,981.55
2018-06-11T07:04:04.858Z,981.54
2018-06-11T07:05:05.064Z,981.55
2018-06-11T07:06:05.266Z,981.50
2018-06-11T07:08:37.525Z,981.58
2018-06-11T07:09:37.762Z,981.61
2018-06-11T07:10:37.914Z,981.65
2018-06-11T07:11:38.116Z,981.73
2018-06-11T07:12:38.475Z,981.78
2018-06-11T07:13:38.604Z,981.75
2018-06-11T07:14:38.739Z,981.72
2018-06-11T07:15:38.936Z,981.74
2018-06-11T07:16:39.146Z,981.80
2018-06-11T07:17:39.352Z,981.80
2018-06-11T07:18:39.538Z,981.81
2018-06-11T07:19:39.764Z,981.87
2018-06-11T07:20:39.980Z,981.86
2018-06-11T07:21:40.180Z,982.01
2018-06-11T07:22:40.392Z,981.92
2018-06-11T07:23:40.599Z,981.93
2018-06-11T07:24:40.775Z,981.79
2018-06-11T07:25:40.998Z,981.82
2018-06-11T07:26:41.189Z,981.80
2018-06-11T07:27:41.404Z,981.83
2018-06-11T07:28:41.607Z,981.92
2018-06-11T07:29:41.810Z,981.96
2018-06-11T07:30:42.056Z,981.94
2018-06-11T07:31:42.255Z,982.01
2018-06-11T07:32:42.451Z,981.96
2018-06-11T07:33:42.656Z,981.93
2018-06-11T07:34:42.856Z,981.92
2018-06-11T07:35:43.071Z,981.91
2018-06-11T07:36:43.280Z,981.98
2018-06-11T07:37:43.504Z,981.97
2018-06-11T07:38:43.721Z,981.96
2018-06-11T07:39:43.930Z,981.97
2018-06-11T07:40:44.120Z,981.93
2018-06-11T07:41:44.347Z,981.99
2018-06-11T07:42:44.536Z,981.98
2018-06-11T07:43:44.747Z,982.01
2018-06-11T07:44:44.938Z,982.05
2018-06-11T07:45:45.157Z,982.05
2018-06-11T07:46:45.378Z,982.18
2018-06-11T07:47:45.588Z,982.18
2018-06-11T07:48:45.795Z,982.21
2018-06-11T07:49:45.998Z,982.19
2018-06-11T07:50:46.249Z,982.20
2018-06-11T07:51:46.490Z,982.23
2018-06-11T07:52:46.624Z,982.15
2018-06-11T07:53:46.818Z,982.09
2018-06-11T07:54:47.019Z,982.05
2018-06-11T07:55:47.231Z,982.07
2018-06-11T07:56:47.440Z,982.11
2018-06-11T07:57:47.655Z,982.19
2018-06-11T07:58:47.856Z,982.28
2018-06-11T07:59:48.051Z,982.50
2018-06-11T08:00:48.257Z,982.47
2018-06-11T08:01:48.457Z,982.60
2018-06-11T08:02:48.669Z,982.55
2018-06-11T08:03:48.883Z,982.49
2018-06-11T08:04:49.104Z,982.67
2018-06-11T08:05:49.300Z,982.68
2018-06-11T08:06:49.515Z,982.67
2018-06-11T08:07:49.715Z,982.68
2018-06-11T08:08:49.908Z,982.70
2018-06-11T08:09:50.099Z,982.61
2018-06-11T08:10:50.303Z,982.67
2018-06-11T08:11:50.509Z,982.66
2018-06-11T08:12:50.730Z,982.66
2018-06-11T08:13:50.935Z,982.66
2018-06-11T08:14:51.132Z,982.59
2018-06-11T08:15:51.326Z,982.62
2018-06-11T08:16:51.529Z,982.53
2018-06-11T08:17:51.736Z,982.63
2018-06-11T08:18:51.952Z,982.64
2018-06-11T08:19:52.158Z,982.66
2018-06-11T08:20:52.424Z,982.60
2018-06-11T08:21:52.562Z,982.56
2018-06-11T08:22:52.772Z,982.52
2018-06-11T08:23:52.979Z,982.60
2018-06-11T08:24:53.174Z,982.57
2018-06-11T08:25:53.401Z,982.60
2018-06-11T08:26:53.605Z,982.57
2018-06-11T08:27:53.831Z,982.58
2018-06-11T08:28:54.045Z,982.66
2018-06-11T08:29:54.277Z,982.60
2018-06-11T08:30:54.499Z,982.63
2018-06-11T08:31:54.698Z,982.65
2018-06-11T08:32:54.918Z,982.54
2018-06-11T08:33:55.130Z,982.56
2018-06-11T08:34:55.355Z,982.66
2018-06-11T08:35:55.560Z,982.61
2018-06-11T08:36:55.782Z,982.67
2018-06-11T08:37:56.003Z,982.64
2018-06-11T08:38:56.209Z,982.65
2018-06-11T08:39:56.414Z,982.69
2018-06-11T08:40:56.645Z,982.56
2018-06-11T08:41:56.839Z,982.72
2018-06-11T08:42:57.042Z,982.69
2018-06-11T08:43:57.239Z,982.62
2018-06-11T08:44:57.458Z,982.71
2018-06-11T08:45:57.656Z,982.32
2018-06-11T08:46:57.856Z,982.29
2018-06-11T08:47:58.075Z,982.12
2018-06-11T08:50:30.192Z,982.56
2018-06-11T08:51:30.381Z,982.21
2018-06-11T08:54:02.541Z,982.60
2018-06-11T08:55:02.717Z,982.44
2018-06-11T08:56:02.936Z,982.64
2018-06-11T08:57:03.147Z,982.76
2018-06-11T08:58:03.361Z,982.45
2018-06-11T08:59:03.568Z,982.75
2018-06-11T09:00:03.793Z,982.67
2018-06-11T09:01:03.986Z,982.70
2018-06-11T09:02:04.316Z,982.78
2018-06-11T09:03:04.385Z,982.90
2018-06-11T09:04:04.612Z,982.79
2018-06-11T09:05:04.809Z,982.44
2018-06-11T09:06:05.011Z,982.59
2018-06-11T09:07:05.248Z,982.48
2018-06-11T09:08:05.445Z,982.47
2018-06-11T09:09:05.643Z,982.47
2018-06-11T09:10:05.858Z,982.33
2018-06-11T09:11:06.072Z,982.26
2018-06-11T09:12:06.298Z,982.25
2018-06-11T09:13:06.505Z,982.22
2018-06-11T09:14:06.722Z,982.54
2018-06-11T09:16:38.835Z,982.32
2018-06-11T09:17:39.026Z,982.13
2018-06-11T09:18:39.247Z,982.08
2018-06-11T09:19:39.446Z,982.01
2018-06-11T09:20:39.657Z,982.08
2018-06-11T09:21:39.887Z,982.01
2018-06-11T09:22:40.100Z,982.02
2018-06-11T09:23:40.286Z,982.09
2018-06-11T09:24:40.484Z,982.02
2018-06-11T09:25:40.695Z,982.16
2018-06-11T09:26:40.922Z,981.94
2018-06-11T09:27:41.139Z,981.89
2018-06-11T09:28:41.362Z,982.16
2018-06-11T09:29:41.570Z,982.43
2018-06-11T09:30:41.761Z,981.98
2018-06-11T09:31:41.981Z,981.94
2018-06-11T09:32:42.184Z,982.02
2018-06-11T09:33:42.400Z,981.97
2018-06-11T09:34:42.600Z,983.04
2018-06-11T09:35:42.798Z,981.88
2018-06-11T09:36:43.020Z,981.89
2018-06-11T09:37:43.216Z,981.91
2018-06-11T09:38:43.433Z,981.92
2018-06-11T09:41:15.557Z,981.86
2018-06-11T09:42:15.739Z,981.90
2018-06-11T09:43:15.953Z,981.89
2018-06-11T09:44:16.178Z,981.91
2018-06-11T09:45:16.363Z,981.93
2018-06-11T09:46:16.554Z,981.93
2018-06-11T09:47:16.755Z,981.97
2018-06-11T09:48:16.950Z,981.99
2018-06-11T09:49:17.210Z,982.00
2018-06-11T09:50:17.354Z,982.11
2018-06-11T09:51:17.572Z,982.04
2018-06-11T09:52:17.779Z,982.07
2018-06-11T09:53:17.995Z,982.03
2018-06-11T09:54:18.202Z,982.09
2018-06-11T09:55:18.422Z,982.11
2018-06-11T09:56:18.639Z,981.96
2018-06-11T09:57:18.829Z,981.95
2018-06-11T09:58:19.047Z,981.89
2018-06-11T09:59:19.242Z,981.87
2018-06-11T10:00:19.436Z,981.91
2018-06-11T10:01:19.654Z,981.90
2018-06-11T10:02:19.873Z,981.92
2018-06-11T10:03:20.076Z,981.89
2018-06-11T10:04:20.288Z,981.88
2018-06-11T10:05:20.498Z,981.91
2018-06-11T10:07:52.622Z,981.87
2018-06-11T10:08:52.804Z,981.93
2018-06-11T10:09:53.030Z,981.91
2018-06-11T10:10:53.230Z,981.93
2018-06-11T10:11:53.420Z,981.91
2018-06-11T10:12:53.689Z,981.89
2018-06-11T10:13:53.774Z,981.91
2018-06-11T10:14:53.979Z,981.88
2018-06-11T10:15:54.178Z,981.85
2018-06-11T10:16:54.387Z,981.83
2018-06-11T10:17:54.620Z,981.86
2018-06-11T10:18:54.847Z,981.85
2018-06-11T10:19:55.022Z,981.82
2018-06-11T10:20:55.233Z,981.83
2018-06-11T10:21:55.454Z,981.83
2018-06-11T10:22:55.670Z,981.78
2018-06-11T10:23:55.902Z,981.83
2018-06-11T10:24:56.135Z,981.86
2018-06-11T10:25:56.294Z,981.83
2018-06-11T10:26:56.519Z,981.84
2018-06-11T10:27:56.712Z,981.78
2018-06-11T10:28:56.904Z,981.84
2018-06-11T10:29:57.123Z,981.81
2018-06-11T10:30:57.321Z,981.84
2018-06-11T10:31:57.537Z,981.87
2018-06-11T10:32:57.739Z,981.82
2018-06-11T10:33:57.948Z,981.89
2018-06-11T10:34:58.147Z,981.84
2018-06-11T10:35:58.368Z,981.83
2018-06-11T10:36:58.555Z,981.86
2018-06-11T10:37:58.772Z,981.70
2018-06-11T10:38:58.985Z,981.74
2018-06-11T10:39:59.227Z,981.79
2018-06-11T10:40:59.430Z,981.80
2018-06-11T10:41:59.620Z,981.82
2018-06-11T10:42:59.821Z,981.85
2018-06-11T10:44:00.040Z,981.79
2018-06-11T10:45:00.248Z,981.78
2018-06-11T10:46:00.569Z,981.85
2018-06-11T10:47:00.640Z,981.74
2018-06-11T10:48:00.859Z,981.74
2018-06-11T10:49:01.059Z,981.74
2018-06-11T10:50:01.245Z,981.75
2018-06-11T10:51:01.480Z,981.68
2018-06-11T10:52:01.688Z,981.63
2018-06-11T10:53:01.922Z,981.57
2018-06-11T10:54:02.158Z,981.61
2018-06-11T10:55:02.376Z,981.55
2018-06-11T10:56:02.587Z,981.52
2018-06-11T10:57:02.801Z,981.51
2018-06-11T10:58:03.069Z,981.52
2018-06-11T10:59:03.197Z,981.53
2018-06-11T11:00:03.419Z,981.58
2018-06-11T11:01:03.634Z,981.53
2018-06-11T11:02:03.833Z,981.54
2018-06-11T11:03:04.043Z,981.56
2018-06-11T11:04:04.226Z,981.56
2018-06-11T11:05:04.489Z,981.57
2018-06-11T11:06:04.569Z,981.55
2018-06-11T11:07:04.773Z,981.58
2018-06-11T11:08:04.969Z,981.55
2018-06-11T11:09:05.198Z,981.54
2018-06-11T11:10:05.403Z,981.58
2018-06-11T11:11:05.590Z,981.46
2018-06-11T11:12:05.791Z,981.45
2018-06-11T11:13:06.055Z,981.49
2018-06-11T11:14:06.205Z,981.51
2018-06-11T11:15:06.414Z,981.41
2018-06-11T11:16:06.617Z,981.43
2018-06-11T11:17:06.828Z,981.36
2018-06-11T11:18:07.040Z,981.32
2018-06-11T11:19:07.234Z,981.39
2018-06-11T11:20:07.438Z,981.38
2018-06-11T11:21:07.633Z,981.36
2018-06-11T11:22:07.832Z,981.34
2018-06-11T11:23:08.164Z,981.34
2018-06-11T11:24:08.242Z,981.31
2018-06-11T11:25:08.442Z,981.29
2018-06-11T11:26:08.649Z,981.27
2018-06-11T11:27:08.865Z,981.26
2018-06-11T11:28:09.080Z,981.27
2018-06-11T11:29:09.272Z,981.23
2018-06-11T11:30:09.477Z,981.21
2018-06-11T11:31:09.677Z,981.14
2018-06-11T11:32:09.887Z,981.09
2018-06-11T11:33:10.102Z,981.09
2018-06-11T11:34:10.325Z,981.06
2018-06-11T11:36:42.619Z,981.00
2018-06-11T11:37:42.676Z,980.98
2018-06-11T11:38:42.862Z,980.99
2018-06-11T11:39:43.069Z,980.97
2018-06-11T11:40:43.286Z,980.99
2018-06-11T11:41:43.499Z,980.96
2018-06-11T11:42:43.706Z,980.91
2018-06-11T11:43:43.945Z,980.95
2018-06-11T11:44:44.154Z,980.91
2018-06-11T11:45:44.361Z,980.89
2018-06-11T11:46:44.553Z,980.87
2018-06-11T11:47:44.761Z,980.93
2018-06-11T11:48:44.973Z,980.89
2018-06-11T11:49:45.206Z,980.90
2018-06-11T11:50:45.426Z,980.92
2018-06-11T11:51:45.621Z,980.89
2018-06-11T11:52:45.826Z,980.96
2018-06-11T11:55:18.001Z,981.02
2018-06-11T11:56:18.180Z,980.96
2018-06-11T11:57:18.382Z,980.93
2018-06-11T11:58:18.575Z,980.90
2018-06-11T11:59:18.796Z,980.93
2018-06-11T12:00:18.991Z,980.91
2018-06-11T12:01:19.198Z,980.85
2018-06-11T12:02:19.391Z,980.78
2018-06-11T12:03:19.593Z,980.77
2018-06-11T12:04:19.805Z,980.75
2018-06-11T12:05:20.012Z,980.75
2018-06-11T12:06:20.225Z,980.81
2018-06-11T12:08:52.352Z,980.84
2018-06-11T12:09:52.544Z,980.70
2018-06-11T12:10:52.755Z,980.71
2018-06-11T12:11:52.971Z,980.75
2018-06-11T12:12:53.183Z,980.73
2018-06-11T12:13:53.402Z,980.73
2018-06-11T12:14:53.599Z,980.60
2018-06-11T12:15:53.816Z,980.63
2018-06-11T12:16:54.020Z,980.61
2018-06-11T12:17:54.227Z,980.67
2018-06-11T12:18:54.433Z,980.55
2018-06-11T12:19:54.623Z,980.58
2018-06-11T12:20:54.851Z,980.61
2018-06-11T12:21:55.062Z,980.62
2018-06-11T12:22:55.286Z,980.60
2018-06-11T12:23:55.503Z,980.58
2018-06-11T12:24:55.719Z,980.60
2018-06-11T12:25:55.909Z,980.68
2018-06-11T12:26:56.115Z,980.65
2018-06-11T12:27:56.323Z,980.64
2018-06-11T12:28:56.519Z,980.63
2018-06-11T12:29:56.735Z,980.65
2018-06-11T12:30:56.940Z,980.64
2018-06-11T12:31:57.149Z,980.63
2018-06-11T12:32:57.412Z,980.60
2018-06-11T12:33:57.612Z,980.56
2018-06-11T12:34:57.832Z,980.56
2018-06-11T12:35:58.053Z,980.60
2018-06-11T12:36:58.262Z,980.55
2018-06-11T12:37:58.472Z,980.46
2018-06-11T12:38:58.696Z,980.42
2018-06-11T12:39:58.905Z,980.32
2018-06-11T12:40:59.107Z,980.32
2018-06-11T12:41:59.339Z,980.30
2018-06-11T12:42:59.548Z,980.32
2018-06-11T12:43:59.753Z,980.34
2018-06-11T12:44:59.941Z,980.29
2018-06-11T12:46:00.152Z,980.22
2018-06-11T12:47:00.364Z,980.23
2018-06-11T12:48:00.592Z,980.21
2018-06-11T12:49:00.813Z,980.21
2018-06-11T12:50:01.026Z,980.18
2018-06-11T12:51:01.251Z,980.21
2018-06-11T12:52:01.466Z,980.20
2018-06-11T12:53:01.675Z,980.16
2018-06-11T12:54:01.890Z,980.26
2018-06-11T12:55:02.108Z,980.25
2018-06-11T12:56:02.304Z,980.29
2018-06-11T12:57:02.519Z,980.21
2018-06-11T12:58:02.775Z,980.22
2018-06-11T12:59:03.006Z,980.20